sensor_id;sensor_type;location;lat;lon;timestamp;P1;durP1;ratioP1;P2;durP2;ratioP2
73879;SDS011;62211;42.986;23.256;2022-10-16T00:01:56;10.43;;;6.30;;
73879;SDS011;62211;42.986;23.256;2022-10-16T00:04:21;7.75;;;5.55;;
73879;SDS011;62211;42.986;23.256;2022-10-16T00:06:52;9.70;;;6.55;;
73879;SDS011;62211;42.986;23.256;2022-10-16T00:12:50;9.75;;;5.65;;
73879;SDS011;62211;42.986;23.256;2022-10-16T00:18:44;11.55;;;5.80;;
73879;SDS011;62211;42.986;23.256;2022-10-16T00:21:15;8.03;;;5.87;;
73879;SDS011;62211;42.986;23.256;2022-10-16T00:23:42;11.90;;;5.75;;
73879;SDS011;62211;42.986;23.256;2022-10-16T00:26:17;9.85;;;5.70;;
73879;SDS011;62211;42.986;23.256;2022-10-16T00:32:06;10.20;;;6.22;;
73879;SDS011;62211;42.986;23.256;2022-10-16T00:37:55;11.30;;;6.22;;
73879;SDS011;62211;42.986;23.256;2022-10-16T00:40:21;6.22;;;4.80;;
73879;SDS011;62211;42.986;23.256;2022-10-16T00:42:46;7.85;;;4.97;;
73879;SDS011;62211;42.986;23.256;2022-10-16T00:45:15;8.52;;;5.45;;
73879;SDS011;62211;42.986;23.256;2022-10-16T00:51:17;9.32;;;5.72;;
73879;SDS011;62211;42.986;23.256;2022-10-16T00:53:44;7.93;;;5.88;;
73879;SDS011;62211;42.986;23.256;2022-10-16T00:56:10;7.85;;;5.70;;
73879;SDS011;62211;42.986;23.256;2022-10-16T00:58:44;8.13;;;5.03;;
73879;SDS011;62211;42.986;23.256;2022-10-16T01:04:41;7.45;;;5.03;;
73879;SDS011;62211;42.986;23.256;2022-10-16T01:10:43;7.25;;;5.20;;
73879;SDS011;62211;42.986;23.256;2022-10-16T01:17:06;6.80;;;5.00;;
73879;SDS011;62211;42.986;23.256;2022-10-16T01:20:01;7.25;;;4.82;;
73879;SDS011;62211;42.986;23.256;2022-10-16T01:35:45;10.40;;;5.25;;
73879;SDS011;62211;42.986;23.256;2022-10-16T01:38:33;8.88;;;5.60;;
73879;SDS011;62211;42.986;23.256;2022-10-16T01:44:51;11.90;;;7.53;;
73879;SDS011;62211;42.986;23.256;2022-10-16T01:47:17;12.68;;;6.97;;
73879;SDS011;62211;42.986;23.256;2022-10-16T01:49:45;12.07;;;7.05;;
73879;SDS011;62211;42.986;23.256;2022-10-16T01:52:14;16.08;;;6.15;;
73879;SDS011;62211;42.986;23.256;2022-10-16T01:58:12;9.15;;;5.70;;
73879;SDS011;62211;42.986;23.256;2022-10-16T02:00:40;9.55;;;5.32;;
73879;SDS011;62211;42.986;23.256;2022-10-16T02:03:07;7.03;;;5.13;;
73879;SDS011;62211;42.986;23.256;2022-10-16T02:09:09;6.75;;;4.55;;
73879;SDS011;62211;42.986;23.256;2022-10-16T02:14:58;13.15;;;6.30;;
73879;SDS011;62211;42.986;23.256;2022-10-16T02:20:51;8.50;;;5.95;;
73879;SDS011;62211;42.986;23.256;2022-10-16T02:32:37;5.55;;;4.90;;
73879;SDS011;62211;42.986;23.256;2022-10-16T02:35:04;25.13;;;15.75;;
73879;SDS011;62211;42.986;23.256;2022-10-16T02:37:30;14.60;;;9.75;;
73879;SDS011;62211;42.986;23.256;2022-10-16T02:39:56;11.63;;;8.05;;
73879;SDS011;62211;42.986;23.256;2022-10-16T02:42:27;11.57;;;7.13;;
73879;SDS011;62211;42.986;23.256;2022-10-16T02:44:53;7.93;;;5.18;;
73879;SDS011;62211;42.986;23.256;2022-10-16T02:47:26;7.95;;;4.68;;
73879;SDS011;62211;42.986;23.256;2022-10-16T02:53:15;5.97;;;4.63;;
73879;SDS011;62211;42.986;23.256;2022-10-16T02:55:41;6.55;;;5.18;;
73879;SDS011;62211;42.986;23.256;2022-10-16T02:58:07;7.45;;;5.80;;
73879;SDS011;62211;42.986;23.256;2022-10-16T03:00:32;8.13;;;6.15;;
73879;SDS011;62211;42.986;23.256;2022-10-16T03:02:57;8.10;;;5.38;;
73879;SDS011;62211;42.986;23.256;2022-10-16T03:05:23;6.82;;;5.75;;
73879;SDS011;62211;42.986;23.256;2022-10-16T03:07:48;8.55;;;6.05;;
73879;SDS011;62211;42.986;23.256;2022-10-16T03:10:13;9.50;;;5.53;;
73879;SDS011;62211;42.986;23.256;2022-10-16T03:12:39;6.32;;;4.85;;
73879;SDS011;62211;42.986;23.256;2022-10-16T03:15:04;7.30;;;5.35;;
73879;SDS011;62211;42.986;23.256;2022-10-16T03:17:31;5.85;;;4.50;;
73879;SDS011;62211;42.986;23.256;2022-10-16T03:19:57;5.95;;;4.70;;
73879;SDS011;62211;42.986;23.256;2022-10-16T03:22:22;6.60;;;5.63;;
73879;SDS011;62211;42.986;23.256;2022-10-16T03:24:48;10.18;;;5.22;;
73879;SDS011;62211;42.986;23.256;2022-10-16T03:33:30;7.82;;;6.13;;
73879;SDS011;62211;42.986;23.256;2022-10-16T03:39:31;8.93;;;5.50;;
73879;SDS011;62211;42.986;23.256;2022-10-16T03:48:06;22.45;;;9.30;;
73879;SDS011;62211;42.986;23.256;2022-10-16T03:50:32;17.85;;;10.98;;
73879;SDS011;62211;42.986;23.256;2022-10-16T03:59:14;11.23;;;6.30;;
73879;SDS011;62211;42.986;23.256;2022-10-16T04:01:40;13.43;;;6.43;;
73879;SDS011;62211;42.986;23.256;2022-10-16T04:04:05;15.70;;;6.63;;
73879;SDS011;62211;42.986;23.256;2022-10-16T04:06:31;14.35;;;6.78;;
73879;SDS011;62211;42.986;23.256;2022-10-16T04:08:56;12.65;;;6.45;;
73879;SDS011;62211;42.986;23.256;2022-10-16T04:11:21;8.55;;;6.10;;
73879;SDS011;62211;42.986;23.256;2022-10-16T04:13:47;9.77;;;6.15;;
73879;SDS011;62211;42.986;23.256;2022-10-16T04:16:13;13.77;;;6.97;;
73879;SDS011;62211;42.986;23.256;2022-10-16T04:18:39;12.25;;;6.22;;
73879;SDS011;62211;42.986;23.256;2022-10-16T04:21:04;13.20;;;5.57;;
73879;SDS011;62211;42.986;23.256;2022-10-16T04:23:32;8.80;;;5.78;;
73879;SDS011;62211;42.986;23.256;2022-10-16T04:26:04;12.43;;;5.78;;
73879;SDS011;62211;42.986;23.256;2022-10-16T04:28:29;14.43;;;7.25;;
73879;SDS011;62211;42.986;23.256;2022-10-16T04:30:55;12.05;;;7.03;;
73879;SDS011;62211;42.986;23.256;2022-10-16T04:33:42;10.02;;;6.07;;
73879;SDS011;62211;42.986;23.256;2022-10-16T04:36:09;14.73;;;7.85;;
73879;SDS011;62211;42.986;23.256;2022-10-16T04:38:34;12.57;;;7.93;;
73879;SDS011;62211;42.986;23.256;2022-10-16T04:40:59;17.80;;;8.50;;
73879;SDS011;62211;42.986;23.256;2022-10-16T04:46:31;12.18;;;6.70;;
73879;SDS011;62211;42.986;23.256;2022-10-16T04:48:56;11.27;;;6.57;;
73879;SDS011;62211;42.986;23.256;2022-10-16T04:51:21;11.40;;;6.32;;
73879;SDS011;62211;42.986;23.256;2022-10-16T04:53:47;11.18;;;6.57;;
73879;SDS011;62211;42.986;23.256;2022-10-16T05:02:52;12.65;;;6.93;;
73879;SDS011;62211;42.986;23.256;2022-10-16T05:23:40;13.13;;;7.47;;
73879;SDS011;62211;42.986;23.256;2022-10-16T05:29:30;17.67;;;8.38;;
73879;SDS011;62211;42.986;23.256;2022-10-16T05:41:34;11.57;;;6.30;;
73879;SDS011;62211;42.986;23.256;2022-10-16T05:43:59;12.38;;;7.47;;
73879;SDS011;62211;42.986;23.256;2022-10-16T05:52:52;14.45;;;6.88;;
73879;SDS011;62211;42.986;23.256;2022-10-16T06:08:18;18.08;;;10.05;;
73879;SDS011;62211;42.986;23.256;2022-10-16T06:10:44;15.60;;;9.70;;
73879;SDS011;62211;42.986;23.256;2022-10-16T06:13:10;19.15;;;9.60;;
73879;SDS011;62211;42.986;23.256;2022-10-16T06:15:36;22.50;;;11.30;;
73879;SDS011;62211;42.986;23.256;2022-10-16T06:18:03;18.58;;;9.60;;
73879;SDS011;62211;42.986;23.256;2022-10-16T06:20:29;15.73;;;9.00;;
73879;SDS011;62211;42.986;23.256;2022-10-16T06:22:54;14.55;;;8.32;;
73879;SDS011;62211;42.986;23.256;2022-10-16T06:25:20;21.23;;;9.38;;
73879;SDS011;62211;42.986;23.256;2022-10-16T06:27:45;22.90;;;11.55;;
73879;SDS011;62211;42.986;23.256;2022-10-16T06:30:11;14.20;;;9.73;;
73879;SDS011;62211;42.986;23.256;2022-10-16T06:32:36;14.25;;;8.52;;
73879;SDS011;62211;42.986;23.256;2022-10-16T06:35:01;21.90;;;11.15;;
73879;SDS011;62211;42.986;23.256;2022-10-16T06:37:27;16.98;;;9.43;;
73879;SDS011;62211;42.986;23.256;2022-10-16T06:39:52;18.15;;;9.75;;
73879;SDS011;62211;42.986;23.256;2022-10-16T06:42:18;21.75;;;10.52;;
73879;SDS011;62211;42.986;23.256;2022-10-16T06:44:44;20.45;;;10.40;;
73879;SDS011;62211;42.986;23.256;2022-10-16T06:47:09;22.83;;;11.77;;
73879;SDS011;62211;42.986;23.256;2022-10-16T06:49:35;17.80;;;9.55;;
73879;SDS011;62211;42.986;23.256;2022-10-16T06:52:00;17.70;;;9.90;;
73879;SDS011;62211;42.986;23.256;2022-10-16T06:54:26;15.98;;;9.85;;
73879;SDS011;62211;42.986;23.256;2022-10-16T06:56:52;19.75;;;9.48;;
73879;SDS011;62211;42.986;23.256;2022-10-16T06:59:19;21.27;;;11.70;;
73879;SDS011;62211;42.986;23.256;2022-10-16T07:01:47;16.35;;;9.77;;
73879;SDS011;62211;42.986;23.256;2022-10-16T07:04:12;15.40;;;10.43;;
73879;SDS011;62211;42.986;23.256;2022-10-16T07:06:38;15.48;;;9.50;;
73879;SDS011;62211;42.986;23.256;2022-10-16T07:09:04;14.57;;;7.97;;
73879;SDS011;62211;42.986;23.256;2022-10-16T07:11:32;19.58;;;8.27;;
73879;SDS011;62211;42.986;23.256;2022-10-16T07:13:58;14.60;;;8.88;;
73879;SDS011;62211;42.986;23.256;2022-10-16T07:16:24;14.23;;;8.07;;
73879;SDS011;62211;42.986;23.256;2022-10-16T07:18:52;14.32;;;9.05;;
73879;SDS011;62211;42.986;23.256;2022-10-16T07:21:23;16.17;;;9.27;;
73879;SDS011;62211;42.986;23.256;2022-10-16T07:23:53;15.65;;;9.18;;
73879;SDS011;62211;42.986;23.256;2022-10-16T07:26:20;19.33;;;10.05;;
73879;SDS011;62211;42.986;23.256;2022-10-16T07:28:45;17.48;;;10.38;;
73879;SDS011;62211;42.986;23.256;2022-10-16T07:34:05;16.63;;;9.20;;
73879;SDS011;62211;42.986;23.256;2022-10-16T07:36:31;15.65;;;9.55;;
73879;SDS011;62211;42.986;23.256;2022-10-16T07:38:56;14.48;;;9.68;;
73879;SDS011;62211;42.986;23.256;2022-10-16T07:48:20;15.52;;;9.25;;
73879;SDS011;62211;42.986;23.256;2022-10-16T07:53:16;14.00;;;8.30;;
73879;SDS011;62211;42.986;23.256;2022-10-16T07:55:42;12.70;;;9.00;;
73879;SDS011;62211;42.986;23.256;2022-10-16T08:04:58;13.15;;;8.57;;
73879;SDS011;62211;42.986;23.256;2022-10-16T08:22:00;11.65;;;8.10;;
73879;SDS011;62211;42.986;23.256;2022-10-16T08:24:26;11.18;;;7.80;;
73879;SDS011;62211;42.986;23.256;2022-10-16T08:26:53;15.43;;;10.60;;
73879;SDS011;62211;42.986;23.256;2022-10-16T08:29:19;142.13;;;50.22;;
73879;SDS011;62211;42.986;23.256;2022-10-16T08:31:45;174.48;;;66.03;;
73879;SDS011;62211;42.986;23.256;2022-10-16T08:34:10;18.45;;;11.77;;
73879;SDS011;62211;42.986;23.256;2022-10-16T08:36:37;13.60;;;8.23;;
73879;SDS011;62211;42.986;23.256;2022-10-16T08:49:35;15.15;;;8.40;;
73879;SDS011;62211;42.986;23.256;2022-10-16T09:01:49;10.48;;;6.30;;
73879;SDS011;62211;42.986;23.256;2022-10-16T09:04:26;5.20;;;4.22;;
73879;SDS011;62211;42.986;23.256;2022-10-16T09:16:39;6.13;;;4.40;;
73879;SDS011;62211;42.986;23.256;2022-10-16T09:21:43;6.40;;;3.50;;
73879;SDS011;62211;42.986;23.256;2022-10-16T09:24:14;5.03;;;3.53;;
73879;SDS011;62211;42.986;23.256;2022-10-16T09:26:40;5.20;;;4.55;;
73879;SDS011;62211;42.986;23.256;2022-10-16T09:29:08;5.20;;;2.92;;
73879;SDS011;62211;42.986;23.256;2022-10-16T09:31:37;6.32;;;3.70;;
73879;SDS011;62211;42.986;23.256;2022-10-16T09:34:02;5.40;;;3.55;;
73879;SDS011;62211;42.986;23.256;2022-10-16T09:36:31;4.53;;;3.10;;
73879;SDS011;62211;42.986;23.256;2022-10-16T09:42:35;4.97;;;3.15;;
73879;SDS011;62211;42.986;23.256;2022-10-16T09:48:36;4.50;;;3.28;;
73879;SDS011;62211;42.986;23.256;2022-10-16T09:51:04;4.63;;;3.10;;
73879;SDS011;62211;42.986;23.256;2022-10-16T09:53:41;4.18;;;3.00;;
73879;SDS011;62211;42.986;23.256;2022-10-16T09:56:11;3.88;;;3.28;;
73879;SDS011;62211;42.986;23.256;2022-10-16T09:59:08;6.35;;;3.47;;
73879;SDS011;62211;42.986;23.256;2022-10-16T10:01:41;4.05;;;2.80;;
73879;SDS011;62211;42.986;23.256;2022-10-16T10:04:10;3.45;;;3.03;;
73879;SDS011;62211;42.986;23.256;2022-10-16T10:06:36;4.65;;;3.03;;
73879;SDS011;62211;42.986;23.256;2022-10-16T10:09:06;5.60;;;3.05;;
73879;SDS011;62211;42.986;23.256;2022-10-16T10:11:43;4.93;;;3.92;;
73879;SDS011;62211;42.986;23.256;2022-10-16T10:14:20;6.07;;;3.60;;
73879;SDS011;62211;42.986;23.256;2022-10-16T10:19:29;3.40;;;2.50;;
73879;SDS011;62211;42.986;23.256;2022-10-16T10:21:55;10.85;;;4.63;;
73879;SDS011;62211;42.986;23.256;2022-10-16T10:24:20;3.42;;;2.47;;
73879;SDS011;62211;42.986;23.256;2022-10-16T10:26:51;3.30;;;3.00;;
73879;SDS011;62211;42.986;23.256;2022-10-16T10:32:12;4.85;;;2.63;;
73879;SDS011;62211;42.986;23.256;2022-10-16T10:35:12;4.13;;;2.50;;
73879;SDS011;62211;42.986;23.256;2022-10-16T10:40:29;3.70;;;2.53;;
73879;SDS011;62211;42.986;23.256;2022-10-16T10:43:39;3.92;;;2.80;;
73879;SDS011;62211;42.986;23.256;2022-10-16T10:46:04;2.85;;;2.50;;
73879;SDS011;62211;42.986;23.256;2022-10-16T10:51:46;3.80;;;2.80;;
73879;SDS011;62211;42.986;23.256;2022-10-16T11:05:40;3.10;;;2.80;;
73879;SDS011;62211;42.986;23.256;2022-10-16T11:08:20;4.20;;;3.53;;
73879;SDS011;62211;42.986;23.256;2022-10-16T11:16:22;17.20;;;10.27;;
73879;SDS011;62211;42.986;23.256;2022-10-16T11:18:58;9.57;;;6.15;;
73879;SDS011;62211;42.986;23.256;2022-10-16T11:21:27;4.28;;;3.20;;
73879;SDS011;62211;42.986;23.256;2022-10-16T11:24:00;4.95;;;3.97;;
73879;SDS011;62211;42.986;23.256;2022-10-16T11:26:39;13.20;;;5.18;;
73879;SDS011;62211;42.986;23.256;2022-10-16T11:29:10;62.33;;;25.25;;
73879;SDS011;62211;42.986;23.256;2022-10-16T11:31:46;21.65;;;10.93;;
73879;SDS011;62211;42.986;23.256;2022-10-16T11:36:51;3.03;;;2.60;;
73879;SDS011;62211;42.986;23.256;2022-10-16T11:39:22;3.20;;;2.78;;
73879;SDS011;62211;42.986;23.256;2022-10-16T11:41:53;3.83;;;2.83;;
73879;SDS011;62211;42.986;23.256;2022-10-16T11:55:55;3.88;;;3.47;;
73879;SDS011;62211;42.986;23.256;2022-10-16T12:11:31;3.90;;;3.58;;
73879;SDS011;62211;42.986;23.256;2022-10-16T12:16:49;3.45;;;2.97;;
73879;SDS011;62211;42.986;23.256;2022-10-16T12:19:17;3.03;;;2.55;;
73879;SDS011;62211;42.986;23.256;2022-10-16T12:21:43;3.17;;;2.03;;
73879;SDS011;62211;42.986;23.256;2022-10-16T12:24:30;2.10;;;2.00;;
73879;SDS011;62211;42.986;23.256;2022-10-16T12:27:04;2.30;;;2.10;;
73879;SDS011;62211;42.986;23.256;2022-10-16T12:29:37;2.58;;;2.10;;
73879;SDS011;62211;42.986;23.256;2022-10-16T12:37:28;3.10;;;2.00;;
73879;SDS011;62211;42.986;23.256;2022-10-16T12:39:55;2.40;;;2.20;;
73879;SDS011;62211;42.986;23.256;2022-10-16T12:44:53;3.90;;;2.63;;
73879;SDS011;62211;42.986;23.256;2022-10-16T12:47:23;3.03;;;2.72;;
73879;SDS011;62211;42.986;23.256;2022-10-16T12:49:55;3.67;;;2.65;;
73879;SDS011;62211;42.986;23.256;2022-10-16T12:52:37;3.15;;;1.92;;
73879;SDS011;62211;42.986;23.256;2022-10-16T12:55:04;2.20;;;2.05;;
73879;SDS011;62211;42.986;23.256;2022-10-16T12:57:43;2.70;;;2.50;;
73879;SDS011;62211;42.986;23.256;2022-10-16T13:05:58;3.60;;;2.63;;
73879;SDS011;62211;42.986;23.256;2022-10-16T13:20:16;2.65;;;2.33;;
73879;SDS011;62211;42.986;23.256;2022-10-16T13:25:35;2.75;;;2.55;;
73879;SDS011;62211;42.986;23.256;2022-10-16T13:28:16;2.40;;;2.17;;
73879;SDS011;62211;42.986;23.256;2022-10-16T13:30:43;3.30;;;2.15;;
73879;SDS011;62211;42.986;23.256;2022-10-16T13:33:17;2.47;;;2.28;;
73879;SDS011;62211;42.986;23.256;2022-10-16T13:35:59;2.95;;;2.60;;
73879;SDS011;62211;42.986;23.256;2022-10-16T13:38:26;3.20;;;2.78;;
73879;SDS011;62211;42.986;23.256;2022-10-16T13:43:42;4.03;;;2.95;;
73879;SDS011;62211;42.986;23.256;2022-10-16T13:46:14;4.15;;;2.75;;
73879;SDS011;62211;42.986;23.256;2022-10-16T13:48:40;2.53;;;2.28;;
73879;SDS011;62211;42.986;23.256;2022-10-16T13:51:14;3.15;;;2.85;;
73879;SDS011;62211;42.986;23.256;2022-10-16T13:53:44;3.92;;;2.70;;
73879;SDS011;62211;42.986;23.256;2022-10-16T13:56:14;4.25;;;2.60;;
73879;SDS011;62211;42.986;23.256;2022-10-16T13:58:41;6.05;;;3.30;;
73879;SDS011;62211;42.986;23.256;2022-10-16T14:01:15;2.78;;;2.58;;
73879;SDS011;62211;42.986;23.256;2022-10-16T14:03:43;4.00;;;2.70;;
73879;SDS011;62211;42.986;23.256;2022-10-16T14:06:13;3.75;;;3.00;;
73879;SDS011;62211;42.986;23.256;2022-10-16T14:11:27;3.90;;;3.25;;
73879;SDS011;62211;42.986;23.256;2022-10-16T14:13:52;4.05;;;3.25;;
73879;SDS011;62211;42.986;23.256;2022-10-16T14:16:19;4.38;;;3.42;;
73879;SDS011;62211;42.986;23.256;2022-10-16T14:18:46;4.22;;;3.83;;
73879;SDS011;62211;42.986;23.256;2022-10-16T14:21:18;4.27;;;3.60;;
73879;SDS011;62211;42.986;23.256;2022-10-16T14:23:44;4.95;;;3.88;;
73879;SDS011;62211;42.986;23.256;2022-10-16T14:28:36;19.75;;;10.43;;
73879;SDS011;62211;42.986;23.256;2022-10-16T14:31:03;9.18;;;6.13;;
73879;SDS011;62211;42.986;23.256;2022-10-16T14:33:45;32.97;;;13.98;;
73879;SDS011;62211;42.986;23.256;2022-10-16T14:36:13;27.23;;;13.07;;
73879;SDS011;62211;42.986;23.256;2022-10-16T14:38:43;16.80;;;8.02;;
73879;SDS011;62211;42.986;23.256;2022-10-16T14:41:40;50.95;;;19.05;;
73879;SDS011;62211;42.986;23.256;2022-10-16T14:44:09;12.52;;;8.52;;
73879;SDS011;62211;42.986;23.256;2022-10-16T14:46:35;59.47;;;23.88;;
73879;SDS011;62211;42.986;23.256;2022-10-16T14:51:33;35.90;;;16.10;;
73879;SDS011;62211;42.986;23.256;2022-10-16T14:53:59;38.35;;;14.88;;
73879;SDS011;62211;42.986;23.256;2022-10-16T14:56:24;41.55;;;14.75;;
73879;SDS011;62211;42.986;23.256;2022-10-16T14:58:51;44.22;;;18.13;;
73879;SDS011;62211;42.986;23.256;2022-10-16T15:01:17;54.40;;;20.63;;
73879;SDS011;62211;42.986;23.256;2022-10-16T15:03:43;24.42;;;10.38;;
73879;SDS011;62211;42.986;23.256;2022-10-16T15:06:12;11.20;;;7.30;;
73879;SDS011;62211;42.986;23.256;2022-10-16T15:08:38;11.95;;;8.45;;
73879;SDS011;62211;42.986;23.256;2022-10-16T15:11:04;9.15;;;5.80;;
73879;SDS011;62211;42.986;23.256;2022-10-16T15:13:32;6.03;;;4.95;;
73879;SDS011;62211;42.986;23.256;2022-10-16T15:15:58;14.98;;;8.43;;
73879;SDS011;62211;42.986;23.256;2022-10-16T15:18:23;60.83;;;54.28;;
73879;SDS011;62211;42.986;23.256;2022-10-16T15:20:50;21.52;;;19.10;;
73879;SDS011;62211;42.986;23.256;2022-10-16T15:23:16;8.57;;;6.85;;
73879;SDS011;62211;42.986;23.256;2022-10-16T15:25:46;9.05;;;6.32;;
73879;SDS011;62211;42.986;23.256;2022-10-16T15:28:13;16.48;;;7.85;;
73879;SDS011;62211;42.986;23.256;2022-10-16T15:30:39;41.22;;;16.20;;
73879;SDS011;62211;42.986;23.256;2022-10-16T15:33:05;11.00;;;6.97;;
73879;SDS011;62211;42.986;23.256;2022-10-16T15:35:36;9.65;;;6.57;;
73879;SDS011;62211;42.986;23.256;2022-10-16T15:38:02;4.50;;;4.07;;
73879;SDS011;62211;42.986;23.256;2022-10-16T15:40:27;15.63;;;8.57;;
73879;SDS011;62211;42.986;23.256;2022-10-16T15:42:52;19.67;;;11.95;;
73879;SDS011;62211;42.986;23.256;2022-10-16T15:45:18;24.40;;;16.08;;
73879;SDS011;62211;42.986;23.256;2022-10-16T15:47:44;20.42;;;13.57;;
73879;SDS011;62211;42.986;23.256;2022-10-16T15:50:11;29.60;;;16.73;;
73879;SDS011;62211;42.986;23.256;2022-10-16T15:52:37;28.88;;;15.32;;
73879;SDS011;62211;42.986;23.256;2022-10-16T15:55:04;19.25;;;12.43;;
73879;SDS011;62211;42.986;23.256;2022-10-16T15:57:34;18.20;;;10.98;;
73879;SDS011;62211;42.986;23.256;2022-10-16T16:00:00;14.45;;;9.98;;
73879;SDS011;62211;42.986;23.256;2022-10-16T16:02:25;11.13;;;7.32;;
73879;SDS011;62211;42.986;23.256;2022-10-16T16:04:51;14.30;;;11.15;;
73879;SDS011;62211;42.986;23.256;2022-10-16T16:07:17;12.15;;;8.60;;
73879;SDS011;62211;42.986;23.256;2022-10-16T16:09:42;11.05;;;7.43;;
73879;SDS011;62211;42.986;23.256;2022-10-16T16:12:09;20.42;;;13.45;;
73879;SDS011;62211;42.986;23.256;2022-10-16T16:14:35;30.83;;;21.08;;
73879;SDS011;62211;42.986;23.256;2022-10-16T16:17:02;14.70;;;9.68;;
73879;SDS011;62211;42.986;23.256;2022-10-16T16:19:27;11.07;;;7.53;;
73879;SDS011;62211;42.986;23.256;2022-10-16T16:21:53;13.43;;;8.15;;
73879;SDS011;62211;42.986;23.256;2022-10-16T16:24:18;12.30;;;6.30;;
73879;SDS011;62211;42.986;23.256;2022-10-16T16:26:44;13.07;;;8.55;;
73879;SDS011;62211;42.986;23.256;2022-10-16T16:29:13;7.85;;;6.03;;
73879;SDS011;62211;42.986;23.256;2022-10-16T16:31:40;11.25;;;4.72;;
73879;SDS011;62211;42.986;23.256;2022-10-16T16:34:06;4.82;;;3.75;;
73879;SDS011;62211;42.986;23.256;2022-10-16T16:36:32;4.00;;;3.22;;
73879;SDS011;62211;42.986;23.256;2022-10-16T16:38:58;17.17;;;11.02;;
73879;SDS011;62211;42.986;23.256;2022-10-16T16:41:24;17.75;;;11.38;;
73879;SDS011;62211;42.986;23.256;2022-10-16T16:43:51;17.83;;;12.07;;
73879;SDS011;62211;42.986;23.256;2022-10-16T16:46:17;14.02;;;7.90;;
73879;SDS011;62211;42.986;23.256;2022-10-16T16:48:44;15.75;;;9.38;;
73879;SDS011;62211;42.986;23.256;2022-10-16T16:51:11;19.02;;;11.73;;
73879;SDS011;62211;42.986;23.256;2022-10-16T16:53:41;32.00;;;14.45;;
73879;SDS011;62211;42.986;23.256;2022-10-16T16:56:07;24.77;;;14.30;;
73879;SDS011;62211;42.986;23.256;2022-10-16T16:58:33;54.95;;;25.52;;
73879;SDS011;62211;42.986;23.256;2022-10-16T17:00:59;31.80;;;16.10;;
73879;SDS011;62211;42.986;23.256;2022-10-16T17:03:31;25.63;;;14.93;;
73879;SDS011;62211;42.986;23.256;2022-10-16T17:06:07;30.83;;;16.10;;
73879;SDS011;62211;42.986;23.256;2022-10-16T17:08:34;16.25;;;8.93;;
73879;SDS011;62211;42.986;23.256;2022-10-16T17:11:00;15.52;;;10.50;;
73879;SDS011;62211;42.986;23.256;2022-10-16T17:13:26;17.08;;;9.35;;
73879;SDS011;62211;42.986;23.256;2022-10-16T17:15:53;17.13;;;10.65;;
73879;SDS011;62211;42.986;23.256;2022-10-16T17:18:20;20.13;;;11.15;;
73879;SDS011;62211;42.986;23.256;2022-10-16T17:20:46;23.70;;;13.10;;
73879;SDS011;62211;42.986;23.256;2022-10-16T17:23:12;49.10;;;22.90;;
73879;SDS011;62211;42.986;23.256;2022-10-16T17:25:38;37.63;;;19.20;;
73879;SDS011;62211;42.986;23.256;2022-10-16T17:28:04;26.08;;;15.57;;
73879;SDS011;62211;42.986;23.256;2022-10-16T17:30:30;42.35;;;32.80;;
73879;SDS011;62211;42.986;23.256;2022-10-16T17:32:58;26.98;;;17.15;;
73879;SDS011;62211;42.986;23.256;2022-10-16T17:35:23;31.40;;;18.27;;
73879;SDS011;62211;42.986;23.256;2022-10-16T17:37:50;34.63;;;19.52;;
73879;SDS011;62211;42.986;23.256;2022-10-16T17:40:16;21.10;;;12.10;;
73879;SDS011;62211;42.986;23.256;2022-10-16T17:42:42;23.90;;;14.23;;
73879;SDS011;62211;42.986;23.256;2022-10-16T17:45:07;19.90;;;11.68;;
73879;SDS011;62211;42.986;23.256;2022-10-16T17:47:34;22.33;;;12.63;;
73879;SDS011;62211;42.986;23.256;2022-10-16T17:50:00;23.65;;;12.57;;
73879;SDS011;62211;42.986;23.256;2022-10-16T17:52:27;18.63;;;11.77;;
73879;SDS011;62211;42.986;23.256;2022-10-16T17:54:52;21.02;;;13.25;;
73879;SDS011;62211;42.986;23.256;2022-10-16T17:57:18;32.95;;;20.25;;
73879;SDS011;62211;42.986;23.256;2022-10-16T17:59:43;19.90;;;12.38;;
73879;SDS011;62211;42.986;23.256;2022-10-16T18:02:12;13.68;;;8.38;;
73879;SDS011;62211;42.986;23.256;2022-10-16T18:04:37;16.10;;;9.55;;
73879;SDS011;62211;42.986;23.256;2022-10-16T18:07:03;16.80;;;10.95;;
73879;SDS011;62211;42.986;23.256;2022-10-16T18:09:28;22.80;;;12.18;;
73879;SDS011;62211;42.986;23.256;2022-10-16T18:11:54;32.15;;;18.08;;
73879;SDS011;62211;42.986;23.256;2022-10-16T18:14:25;25.73;;;15.73;;
73879;SDS011;62211;42.986;23.256;2022-10-16T18:16:52;22.92;;;12.98;;
73879;SDS011;62211;42.986;23.256;2022-10-16T18:19:18;23.08;;;13.02;;
73879;SDS011;62211;42.986;23.256;2022-10-16T18:21:48;24.90;;;12.80;;
73879;SDS011;62211;42.986;23.256;2022-10-16T18:24:14;24.95;;;13.02;;
73879;SDS011;62211;42.986;23.256;2022-10-16T18:26:40;41.10;;;18.73;;
73879;SDS011;62211;42.986;23.256;2022-10-16T18:29:06;20.75;;;10.85;;
73879;SDS011;62211;42.986;23.256;2022-10-16T18:31:33;13.35;;;9.30;;
73879;SDS011;62211;42.986;23.256;2022-10-16T18:34:00;12.13;;;8.35;;
73879;SDS011;62211;42.986;23.256;2022-10-16T18:36:27;13.75;;;9.20;;
73879;SDS011;62211;42.986;23.256;2022-10-16T18:38:54;12.15;;;8.85;;
73879;SDS011;62211;42.986;23.256;2022-10-16T18:41:19;13.00;;;9.50;;
73879;SDS011;62211;42.986;23.256;2022-10-16T18:43:45;16.50;;;9.02;;
73879;SDS011;62211;42.986;23.256;2022-10-16T18:46:18;11.75;;;8.20;;
73879;SDS011;62211;42.986;23.256;2022-10-16T18:48:44;14.13;;;8.05;;
73879;SDS011;62211;42.986;23.256;2022-10-16T18:53:50;12.50;;;9.00;;
73879;SDS011;62211;42.986;23.256;2022-10-16T18:56:18;13.38;;;10.57;;
73879;SDS011;62211;42.986;23.256;2022-10-16T18:58:45;19.38;;;13.38;;
73879;SDS011;62211;42.986;23.256;2022-10-16T19:01:13;18.17;;;10.88;;
73879;SDS011;62211;42.986;23.256;2022-10-16T19:03:40;18.15;;;11.32;;
73879;SDS011;62211;42.986;23.256;2022-10-16T19:06:07;18.45;;;10.77;;
73879;SDS011;62211;42.986;23.256;2022-10-16T19:08:34;15.07;;;9.10;;
73879;SDS011;62211;42.986;23.256;2022-10-16T19:11:07;17.58;;;10.93;;
73879;SDS011;62211;42.986;23.256;2022-10-16T19:13:37;23.10;;;13.95;;
73879;SDS011;62211;42.986;23.256;2022-10-16T19:16:03;21.55;;;13.27;;
73879;SDS011;62211;42.986;23.256;2022-10-16T19:18:31;47.88;;;26.00;;
73879;SDS011;62211;42.986;23.256;2022-10-16T19:21:01;52.03;;;28.38;;
73879;SDS011;62211;42.986;23.256;2022-10-16T19:23:28;45.47;;;23.65;;
73879;SDS011;62211;42.986;23.256;2022-10-16T19:25:54;41.60;;;22.20;;
73879;SDS011;62211;42.986;23.256;2022-10-16T19:28:19;28.08;;;16.10;;
73879;SDS011;62211;42.986;23.256;2022-10-16T19:30:45;23.38;;;16.05;;
73879;SDS011;62211;42.986;23.256;2022-10-16T19:33:12;53.65;;;27.85;;
73879;SDS011;62211;42.986;23.256;2022-10-16T19:35:38;40.17;;;20.77;;
73879;SDS011;62211;42.986;23.256;2022-10-16T19:38:03;27.08;;;16.33;;
73879;SDS011;62211;42.986;23.256;2022-10-16T19:40:28;23.38;;;13.85;;
73879;SDS011;62211;42.986;23.256;2022-10-16T19:42:54;26.15;;;13.95;;
73879;SDS011;62211;42.986;23.256;2022-10-16T19:45:20;22.75;;;13.50;;
73879;SDS011;62211;42.986;23.256;2022-10-16T19:47:45;21.35;;;11.80;;
73879;SDS011;62211;42.986;23.256;2022-10-16T19:50:11;19.70;;;11.52;;
73879;SDS011;62211;42.986;23.256;2022-10-16T19:52:37;19.60;;;11.50;;
73879;SDS011;62211;42.986;23.256;2022-10-16T19:55:03;22.33;;;9.85;;
73879;SDS011;62211;42.986;23.256;2022-10-16T19:57:33;16.58;;;9.77;;